Pacific Grove, CA (93950)

2:36 AM PDT on August 30, 2014 (GMT -0700)
Lover's Point | Change Station
CLOSE
Current Station
Personal Weather Station
Location: Pacific Grove, CA
Elevation: 95 ft
Nearby Weather Stations

Elev 95 ft 36.62 °N, 121.92 °W | Updated 4 seconds ago

Mostly Cloudy
Mostly Cloudy
60.9 °F
Feels Like 60.9 °F
N
0.0
Wind Variable Wind from West
Gusts 0.0 mph

Today
High -- | Low -- °F
--% Chance of Precip.
Yesterday
High -- | Low -- °F
Precip. -- in
6:37 AM 7:38 PM
Waxing Crescent, 20% visible
Pressure 29.95 in
Visibility 10.0 miles
Clouds Mostly Cloudy 400 ft
Dew Point 57 °F
Humidity 87%
Rainfall 0.00 in
Snow Depth Not available.
UV 0.0 out of 12
Pollen 7.40 out of 12
Air Quality Not available.
Flu Activity Not available.
METAR KMRY 300854Z AUTO 00000KT 10SM BKN004 16/14 A2991 RMK AO2 SLP140 T01560144 56008

More Conditions Fewer Conditions

Pressure 29.95 in
Visibility 10.0 miles
Clouds Mostly Cloudy 400 ft
Dew Point 57 °F
Humidity 87%
Rainfall 0.00 in
Snow Depth Not available.
UV 0.0 out of 12
Pollen 7.40 out of 12
Air Quality Not available.
Flu Activity Not available.
METAR KMRY 300854Z AUTO 00000KT 10SM BKN004 16/14 A2991 RMK AO2 SLP140 T01560144 56008

More Conditions Fewer Conditions

10-Day Weather Forecast

Almanac

Astronomy

Aug. 30, 2014 Rise Set
Actual Time 6:37 AM PDT 7:38 PM PDT
Civil Twilight 6:10 AM PDT 8:04 PM PDT
Nautical Twilight 5:39 AM PDT 8:36 PM PDT
Astronomical Twilight 5:06 AM PDT 9:08 PM PDT
Moon 11:21 AM PDT 10:25 PM PDT
Length of Visible Light 13h 54m
Length of Day
13h 01m
Tomorrow will be 2m 13s shorter.
Waxing Crescent, 20% of the Moon is Illuminated
Today
Waxing Crescent
Sep 2
First Quarter
Sep 8
Full
Sep 15
Last Quarter
Sep 24
New

Today's Extremes

State Highs State Lows

Community

WunderPhotos

Upload Photos

1,748,475 photos uploaded!

Nearby

Snow Depth

Station Depth Elevation
Leavitt Lake 0 in 9400 ft
Blue Lakes 0 in 8000 ft
Leavitt Meadows 1 in 7200 ft
Forestdale Creek 0 in 8029 ft
Summit Meadow 0 in 9122 ft

Earthquake Activity

City Distance Mag. Time & Date
Ridgemark, California 33 miles 3.4 4:32 PM PDT
2014-08-29
Ridgemark, California 33 miles 3.0 2:44 PM PDT
2014-08-29
Minimum magnitude displayed is 2.5.

Coastal Water Temperatures

Place Temperature
Monterey, CA 64.9 °F
Redwood City, CA 73.0 °F

Nearby Weather Stations